AXM121 WMKP-WMKL
Flight info
| Callsign | AXM121 |
|---|---|
| Flight time | 0h 18m |
| Altitude | 10000 |
| Route | OMBOK DCT KAPKO KAPKO1E |
| Aircraft | A320/M-SDE3FGHIRWY/LB1 |
Departure
| Time | 2026-05-04 00:07 |
|---|---|
| Airport | Penang International Airport (WMKP) |
Arrival
| Time | 2026-05-04 00:26 |
|---|---|
| Airport | Langkawi International Airport (WMKL) |
| Time | Latitude | Longitude | Altitude | Speed | Heading |
|---|---|---|---|---|---|
| 2026-05-03 23:41 | 5.29224 | 100.26645 | 23 ft | 0 kts | 311° |
| 2026-05-03 23:53 | 5.29225 | 100.26645 | 23 ft | 0 kts | 311° |
| 2026-05-03 23:59 | 5.29224 | 100.26645 | 23 ft | 1 kts | 311° |
| 2026-05-04 00:00 | 5.29208 | 100.26664 | 23 ft | 4 kts | 308° |
| 2026-05-04 00:00 | 5.29192 | 100.26685 | 24 ft | 4 kts | 311° |
| 2026-05-04 00:00 | 5.29176 | 100.26700 | 23 ft | 3 kts | 322° |
| 2026-05-04 00:00 | 5.29159 | 100.26717 | 23 ft | 4 kts | 284° |
| 2026-05-04 00:01 | 5.29164 | 100.26734 | 25 ft | 4 kts | 222° |
| 2026-05-04 00:01 | 5.29175 | 100.26745 | 23 ft | 0 kts | 222° |
| 2026-05-04 00:03 | 5.29145 | 100.26716 | 24 ft | 8 kts | 223° |
| 2026-05-04 00:03 | 5.29111 | 100.26686 | 24 ft | 8 kts | 221° |
| 2026-05-04 00:04 | 5.29033 | 100.26616 | 24 ft | 16 kts | 222° |
| 2026-05-04 00:04 | 5.28959 | 100.26631 | 24 ft | 10 kts | 129° |
| 2026-05-04 00:04 | 5.28904 | 100.26678 | 24 ft | 11 kts | 163° |
| 2026-05-04 00:04 | 5.28887 | 100.26675 | 25 ft | 6 kts | 208° |
| 2026-05-04 00:05 | 5.28838 | 100.26632 | 23 ft | 8 kts | 223° |
| 2026-05-04 00:05 | 5.28793 | 100.26593 | 23 ft | 11 kts | 218° |
| 2026-05-04 00:05 | 5.28733 | 100.26575 | 23 ft | 7 kts | 174° |
| 2026-05-04 00:05 | 5.28702 | 100.26584 | 23 ft | 4 kts | 155° |
| 2026-05-04 00:06 | 5.28639 | 100.26656 | 25 ft | 16 kts | 121° |
| 2026-05-04 00:06 | 5.28641 | 100.26710 | 26 ft | 4 kts | 36° |
| 2026-05-04 00:06 | 5.28654 | 100.26722 | 23 ft | 0 kts | 43° |
| 2026-05-04 00:06 | 5.28657 | 100.26725 | 26 ft | 4 kts | 42° |
| 2026-05-04 00:07 | 5.28858 | 100.26908 | 26 ft | 77 kts | 42° |
| 2026-05-04 00:07 | 5.29415 | 100.27413 | 24 ft | 136 kts | 42° |
| 2026-05-04 00:07 | 5.30234 | 100.28156 | 110 ft | 174 kts | 42° |
| 2026-05-04 00:07 | 5.31134 | 100.28973 | 745 ft | 179 kts | 42° |
| 2026-05-04 00:08 | 5.32111 | 100.29850 | 1222 ft | 197 kts | 41° |
| 2026-05-04 00:08 | 5.33187 | 100.30796 | 1667 ft | 216 kts | 40° |
| 2026-05-04 00:08 | 5.34512 | 100.31625 | 2068 ft | 238 kts | 13° |
| 2026-05-04 00:08 | 5.36215 | 100.31515 | 2513 ft | 260 kts | 335° |
| 2026-05-04 00:09 | 5.37753 | 100.30518 | 3306 ft | 267 kts | 323° |
| 2026-05-04 00:09 | 5.39241 | 100.29395 | 4189 ft | 269 kts | 322° |
| 2026-05-04 00:09 | 5.40749 | 100.28251 | 5071 ft | 274 kts | 323° |
| 2026-05-04 00:09 | 5.42281 | 100.27097 | 5913 ft | 277 kts | 323° |
| 2026-05-04 00:10 | 5.43837 | 100.25932 | 6758 ft | 281 kts | 323° |
| 2026-05-04 00:10 | 5.45425 | 100.24757 | 7584 ft | 286 kts | 324° |
| 2026-05-04 00:10 | 5.47038 | 100.23569 | 8379 ft | 290 kts | 324° |
| 2026-05-04 00:10 | 5.48677 | 100.22365 | 9146 ft | 294 kts | 324° |
| 2026-05-04 00:11 | 5.50345 | 100.21143 | 9776 ft | 300 kts | 324° |
| 2026-05-04 00:11 | 5.52036 | 100.19907 | 9962 ft | 301 kts | 324° |
| 2026-05-04 00:11 | 5.53730 | 100.18670 | 10006 ft | 302 kts | 324° |
| 2026-05-04 00:11 | 5.55422 | 100.17436 | 10018 ft | 300 kts | 324° |
| 2026-05-04 00:12 | 5.57109 | 100.16203 | 10013 ft | 300 kts | 324° |
| 2026-05-04 00:12 | 5.58796 | 100.14966 | 10003 ft | 301 kts | 324° |
| 2026-05-04 00:12 | 5.60484 | 100.13727 | 10009 ft | 300 kts | 324° |
| 2026-05-04 00:12 | 5.62170 | 100.12491 | 10012 ft | 300 kts | 324° |
| 2026-05-04 00:13 | 5.63856 | 100.11256 | 10015 ft | 300 kts | 324° |
| 2026-05-04 00:13 | 5.65542 | 100.10021 | 10017 ft | 300 kts | 324° |
| 2026-05-04 00:13 | 5.67229 | 100.08786 | 10008 ft | 300 kts | 324° |
| 2026-05-04 00:13 | 5.68913 | 100.07554 | 10006 ft | 299 kts | 324° |
| 2026-05-04 00:14 | 5.70596 | 100.06324 | 10006 ft | 299 kts | 324° |
| 2026-05-04 00:14 | 5.72258 | 100.05109 | 10010 ft | 300 kts | 324° |
| 2026-05-04 00:14 | 5.74052 | 100.03994 | 9910 ft | 299 kts | 335° |
| 2026-05-04 00:14 | 5.75907 | 100.03108 | 9802 ft | 300 kts | 335° |
| 2026-05-04 00:15 | 5.77786 | 100.02209 | 9671 ft | 299 kts | 335° |
| 2026-05-04 00:15 | 5.79661 | 100.01312 | 9546 ft | 298 kts | 335° |
| 2026-05-04 00:15 | 5.81532 | 100.00415 | 9421 ft | 298 kts | 335° |
| 2026-05-04 00:15 | 5.83404 | 99.99520 | 9296 ft | 298 kts | 335° |
| 2026-05-04 00:16 | 5.85273 | 99.98629 | 9164 ft | 296 kts | 335° |
| 2026-05-04 00:16 | 5.87132 | 99.97741 | 9058 ft | 296 kts | 335° |
| 2026-05-04 00:16 | 5.88984 | 99.96852 | 8975 ft | 295 kts | 335° |
| 2026-05-04 00:16 | 5.90840 | 99.95961 | 8856 ft | 295 kts | 335° |
| 2026-05-04 00:17 | 5.92692 | 99.95073 | 8727 ft | 295 kts | 334° |
| 2026-05-04 00:17 | 5.94457 | 99.94036 | 8621 ft | 294 kts | 324° |
| 2026-05-04 00:17 | 5.96000 | 99.92691 | 8525 ft | 294 kts | 314° |
| 2026-05-04 00:17 | 5.97281 | 99.91091 | 8404 ft | 294 kts | 303° |
| 2026-05-04 00:18 | 5.98355 | 99.89347 | 8281 ft | 293 kts | 302° |
| 2026-05-04 00:18 | 5.99427 | 99.87605 | 8154 ft | 293 kts | 302° |
| 2026-05-04 00:18 | 6.00500 | 99.85870 | 8026 ft | 292 kts | 302° |
| 2026-05-04 00:18 | 6.01572 | 99.84137 | 7903 ft | 292 kts | 302° |
| 2026-05-04 00:19 | 6.02640 | 99.82407 | 7777 ft | 291 kts | 302° |
| 2026-05-04 00:19 | 6.03702 | 99.80687 | 7656 ft | 289 kts | 302° |
| 2026-05-04 00:19 | 6.04761 | 99.78967 | 7545 ft | 290 kts | 302° |
| 2026-05-04 00:19 | 6.05819 | 99.77246 | 7422 ft | 289 kts | 302° |
| 2026-05-04 00:20 | 6.06873 | 99.75530 | 7299 ft | 288 kts | 302° |
| 2026-05-04 00:20 | 6.07923 | 99.73820 | 7173 ft | 288 kts | 302° |
| 2026-05-04 00:20 | 6.08979 | 99.72103 | 6730 ft | 288 kts | 302° |
| 2026-05-04 00:20 | 6.10022 | 99.70408 | 6225 ft | 283 kts | 302° |
| 2026-05-04 00:21 | 6.11061 | 99.68736 | 5719 ft | 281 kts | 305° |
| 2026-05-04 00:21 | 6.12359 | 99.67295 | 5229 ft | 277 kts | 321° |
| 2026-05-04 00:21 | 6.13899 | 99.66128 | 4590 ft | 279 kts | 318° |
| 2026-05-04 00:21 | 6.15214 | 99.64710 | 3841 ft | 277 kts | 316° |
| 2026-05-04 00:22 | 6.16820 | 99.63733 | 3320 ft | 265 kts | 345° |
| 2026-05-04 00:22 | 6.18604 | 99.63589 | 3075 ft | 254 kts | 8° |
| 2026-05-04 00:22 | 6.20199 | 99.64141 | 2795 ft | 235 kts | 32° |
| 2026-05-04 00:22 | 6.21524 | 99.65032 | 2501 ft | 224 kts | 34° |
| 2026-05-04 00:23 | 6.22780 | 99.65894 | 2204 ft | 214 kts | 34° |
| 2026-05-04 00:23 | 6.23975 | 99.66711 | 1951 ft | 200 kts | 34° |
| 2026-05-04 00:23 | 6.25085 | 99.67469 | 1693 ft | 185 kts | 34° |
| 2026-05-04 00:23 | 6.26110 | 99.68170 | 1437 ft | 172 kts | 34° |
| 2026-05-04 00:24 | 6.27067 | 99.68823 | 1214 ft | 161 kts | 34° |
| 2026-05-04 00:24 | 6.27971 | 99.69440 | 1003 ft | 154 kts | 34° |
| 2026-05-04 00:24 | 6.28849 | 99.70041 | 806 ft | 152 kts | 34° |
| 2026-05-04 00:24 | 6.29717 | 99.70633 | 618 ft | 150 kts | 34° |
| 2026-05-04 00:25 | 6.30579 | 99.71222 | 409 ft | 150 kts | 34° |
| 2026-05-04 00:25 | 6.31434 | 99.71816 | 203 ft | 149 kts | 35° |
| 2026-05-04 00:25 | 6.32288 | 99.72399 | 63 ft | 148 kts | 34° |
| 2026-05-04 00:25 | 6.33061 | 99.72921 | 32 ft | 115 kts | 34° |
| 2026-05-04 00:26 | 6.33561 | 99.73262 | 32 ft | 65 kts | 33° |
| 2026-05-04 00:26 | 6.33736 | 99.73340 | 32 ft | 14 kts | 327° |
| 2026-05-04 00:26 | 6.33777 | 99.73306 | 32 ft | 8 kts | 317° |
| 2026-05-04 00:26 | 6.33847 | 99.73217 | 32 ft | 18 kts | 315° |
| 2026-05-04 00:27 | 6.33912 | 99.73152 | 31 ft | 7 kts | 304° |
| 2026-05-04 00:27 | 6.33918 | 99.73143 | 32 ft | 0 kts | 304° |